Du har inga inställningar för hoppväder.nu

Hoppväder.nu

Senast uppdaterat 19:28

UTC-tid

2019-08-18 kl. 17:28


Sol och måne

Solen går upp 5:07 och går ner 21:40 (beräknade cirkatider)
Nästa fullmåne blir om 27 dagar (2019-09-14)

METAR

ESNN (Sundsvall)
(8 minuter sedan)
ESNN 181720Z 14010KT 9999 SCT007 17/16 Q1003=



ESNK (Kramfors)
(8 minuter sedan)
ESNK 181720Z 14013KT 9999 FEW017 SCT092 BKN190 17/13 Q1003=



ESNO (Örnsköldsvik)
(8 minuter sedan)
ESNO 181720Z AUTO 16011KT 7000 -RA OVC003/// 15/15 Q1004 REDZ=



ESNY (Söderhamn)
ESNY NIL=



ESNZ (Östersund)
(8 minuter sedan)
ESNZ 181720Z 16007KT CAVOK 17/06 Q1000=



TAF

ESNN (Sundsvall)
(-2 minuter sedan)
ESNN 181730Z 1818/1822 13008KT 9999 FEW008 PROB40 1818/1820 SHRA BKN010 SCT020CB=



ESNK (Kramfors)
ESNK



ESNO (Örnsköldsvik)
(-2 minuter sedan)
ESNO 181730Z 1818/1822 16010KT 9999 BKN006 PROB40 1818/1822 SHRA SCT009 BKN020CB=



ESNY (Söderhamn)
ESNY



ESNZ (Östersund)
(-2 minuter sedan)
ESNZ 181730Z 1818/1822 18010KT CAVOK=





Kodnycklar till TAF och METAR






LHP

(Sundsvall är område D1a i Sydöstra delen)

ÄNDRAD ÖVERSIKT FÖR OMRÅDE C UTFÄRDAD 181242
GÄLLANDE DEN 18 AUGUSTI 2019 MELLAN 12 OCH 20 UTC


Väderöversikt

Flera fronter berör Norrland och de rör sig mot norr I hela fjällkedjan förekommer regnskurar och en sydlig eller sydostlig vind


Sikt under 5 kilometer eller molnbas under 1000 fot
12-20UTC: I hela området


Måttlig eller svår isbildning
12-20UTC: Område Norra delen


Måttlig eller svår turbulens
Väntas inte förekomma under perioden



ÄNDRAD PROGNOS FÖR OMRÅDE C DEN SYDÖSTRA DELEN UTFÄRDAD 181242
GÄLLANDE DEN 18 AUGUSTI 2019 MELLAN 12 OCH 20 UTC

Måttlig eller svår turbulens
12-20UTC: I hela området: Väntas inte förekomma under perioden

Måttlig eller svår isbildning
12-20UTC: I hela området: Väntas inte förekomma under perioden

Sikt/Väder/Moln
12-16UTC: Område D1a,D2a,D2b: Sikt 3km - >8km i regnskurar, åska. Molnbas 1500ft - >2000ft.
Område D1b,D1c: Sikt >8km, lokalt 3km - 5km i regnskurar, åska. Molnbas >2000ft.

16-20UTC: Område D1b,D1c: Sikt >8km, lokalt 3km - 5km i regnskurar, åska. Molnbas >2000ft, lokalt 1000ft - 1500ft.
Område D1a,D2a,D2b: Sikt 3km - >8km i regnskurar, åska. Molnbas 1000ft - >2000ft.


Molnöversida
12-14UTC: Område D1b,D1a,D2a,D2b: Molnöversida FL090.

12-20UTC: Område D1c: Molnöversida > FL125.

14-16UTC: Område D1a,D2a: Molnöversida FL100.

14-20UTC: Område D1b,D2b: Molnöversida > FL125.

16-20UTC: Område D1a,D2a: Molnöversida > FL125.


CB/TCU Moln
12-14UTC: Område D1a,D2a,D2b: ISOL CB, TCU

12-16UTC: Område D1b,D1c: ISOL CB

14-16UTC: Område D1a,D2a,D2b: TCU, ISOL CB

16-18UTC: Område D2a: ISOL CB, TCU
Område D1a,D2b: ISOL CB, OCNL CB, TCU

16-20UTC: Område D1b,D1c: OCNL CB

18-20UTC: Område D1a,D2a,D2b: ISOL CB, OCNL CB


Nollgradersisoterm
12-16UTC: Noll grader FL075 - FL095.
16-18UTC: Noll grader FL085 - FL095.
18-20UTC: Noll grader FL075 - FL095.

Vind vid marken
12-14UTC: Område D1b: SO-S/3-15 knop, byar upp till 22 knop.
Område D1c: SO-S/5-20 knop, byar upp till 25 knop.
Område D2b: S/3-14 knop, byar upp till 25 knop.
Område D2a: S/4-10 knop, byar upp till 21 knop.
Område D1a: SO-S/7-17 knop, byar upp till 28 knop.

14-16UTC: Område D1c: SO-S/2-20 knop, byar upp till 26 knop.
Område D2a: SO-S/4-10 knop, byar upp till 22 knop.
Område D2b: S/2-12 knop, byar upp till 22 knop.
Område D1a: SO-S/6-15 knop, byar upp till 24 knop.
Område D1b: SO-S/5-15 knop, byar upp till 21 knop.

16-18UTC: Område D2a: SO-S/1-9 knop, byar upp till 19 knop.
Område D1b: SO-S/4-16 knop, byar upp till 21 knop.
Område D1c: SO-S/2-20 knop, byar upp till 27 knop.
Område D1a: SO-S/5-15 knop, byar upp till 22 knop.
Område D2b: SO-S/0-15 knop, byar upp till 18 knop.

18-20UTC: Område D1a: S/2-14 knop, byar upp till 20 knop.
Område D1c: SO-S/2-21 knop, byar upp till 26 knop.
Område D2a: SO/0-8 knop, byar upp till 16 knop.
Område D2b: SO-S/1-14 knop, byar upp till 17 knop.
Område D1b: SO-S/2-15 knop, byar upp till 20 knop.


Genomsnittlig vind och temperatur för området
2000ft:
12-16UTC: 190/15kt +13.
16-18UTC: 190/14kt +13.
18-20UTC: 190/13kt +13.

FL50:
12-14UTC: 200/20kt +6.
14-16UTC: 200/19kt +7.
16-18UTC: 200/16kt +7.
18-20UTC: 200/15kt +7.

FL100:
12-14UTC: 200/29kt -2.
14-16UTC: 200/28kt -2.
16-18UTC: 200/27kt -2.
18-20UTC: 190/26kt -3.

Lägsta QNH
1001 hPa.

OBS! endast utbredd måttlig eller svår isbildning och turbulens prognostiseras i LLF.
Avsaknad av isbildning och turbulens i prognosen utesluter inte förekomst av lätt isbildning och turbulens.
För indikation på lätt isbildning, var vänlig kontrollera om prognosen för molntopp ligger högre än nollgradersisotermen.
Förekomst av TCU eller CB medför alltid en risk för måttlig eller svår isbildning och turbulens även om det inte framgår explicit av prognosen.





Spotting

Hur fungerar spotthjälpen och Vindkartan?

Markvind är ca 3-8 m/s med byar på 11 m/s.
Vind på 600 m ca 7 m/s.
Vind på 1500 m ca 8 m/s.
Vind på 3000 m ca 14 m/s.
Feppen flyger ca 22 m/s över marken på finalen.
Du driver ca 625 m bakåt i frifall. (833 m)
Lämplig spot är 15 sekunder eller 332 m efter gropen.
(25 s eller 553 m)
För små grupper eller ensamhoppare bör man vänta 7-10 sekunder mellan grupperna.
För större grupper bör man vänta 14-16 sekunder mellan grupperna.


Vindkartan

Senast uppdaterad 19:28




All data kommer från LFV.se